Main page
Satellite images 15-day forecastsClimateMarine weather Cyclones Lightning AirportsFAQ Newsletter About
Weather : Europe Africa North America South America Asia Australia-Oceania Others
Languages Contact

Pontianak, Indonesia

latitude: 00-09S, longitude: 109-24E, elevation: 3 m


METAR: WIOO 250900Z 00000KT 9999 SCT012 34/22 Q1008
TAF: missing

Time: 19:39 (12:39 UTC)

Current weather observation

The report was made 3 hours and 39 minutes ago, at 09:00 UTC
Wind calm
Temperature 34°C
Humidity 50%
Pressure 1008 hPa
Visibility 10 km or more
Scattered clouds at a height of 1200 ft

Change units
The information on this site is subject to a disclaimer
Weather : Europe Africa North America South America Asia Australia-Oceania Others
Satellite images 15-day forecastsClimateMarine weather Cyclones Lightning AirportsFAQ Languages Contact Newsletter About